Boyd, Montana
Current Conditions -  °F | °C
As of 10:53 AM on Tuesday 21 Oct 2014 (Local Time) from KBIL Reporting Station
Broken Clouds Broken Clouds  
Wind Chill: 60°   Ceiling: 20000
Heat Index: 60°   Visibility: 10mi
Dew Point: 33°   Wind: 10mph
Humidity: 36%   Direction: 220°SW
Pressure: 29.7"   Gusts: NA
Location:  45.46°N, 109.06°W
Report Text: KBIL 211653Z 22009KT 10SM SCT080 BKN200 16/01 A2970 RMK AO2 SLP040 VIRGA S-N CBMAM DSNT S-SW SHRA DSNT W-N T01560006
Loading
Personal Weather Stations






























Interactive Weather Map
Tropical Storm Tracking
New forecast layout! Learn more

10-Day Weather Forecast

Advertisements
Track Severe Weather on mobile